createdAt,value
2018-01-21T00:00:45.675Z,4.72
2018-01-21T00:01:45.579Z,4.72
2018-01-21T00:02:45.568Z,4.73
2018-01-21T00:03:45.700Z,4.67
2018-01-21T00:04:45.570Z,4.64
2018-01-21T00:05:45.561Z,4.58
2018-01-21T00:06:45.578Z,4.64
2018-01-21T00:07:45.578Z,4.61
2018-01-21T00:08:45.612Z,4.52
2018-01-21T00:09:45.595Z,4.58
2018-01-21T00:10:45.463Z,4.55
2018-01-21T00:11:45.522Z,4.47
2018-01-21T00:12:45.852Z,4.57
2018-01-21T00:13:45.471Z,4.62
2018-01-21T00:14:45.520Z,4.57
2018-01-21T00:15:45.468Z,4.64
2018-01-21T00:16:45.431Z,4.65
2018-01-21T00:17:45.461Z,4.73
2018-01-21T00:18:45.442Z,4.70
2018-01-21T00:19:45.409Z,4.70
2018-01-21T00:20:46.614Z,4.75
2018-01-21T00:21:45.389Z,4.72
2018-01-21T00:24:07.866Z,4.69
2018-01-21T00:26:29.645Z,4.54
2018-01-21T00:28:52.821Z,4.54
2018-01-21T00:29:51.991Z,4.55
2018-01-21T00:30:51.443Z,4.57
2018-01-21T00:31:51.152Z,4.61
2018-01-21T00:32:51.068Z,4.67
2018-01-21T00:33:51.133Z,4.59
2018-01-21T00:34:51.196Z,4.62
2018-01-21T00:35:52.340Z,4.61
2018-01-21T00:36:51.152Z,4.64
2018-01-21T00:37:51.134Z,4.59
2018-01-21T00:38:51.124Z,4.61
2018-01-21T00:39:51.033Z,4.64
2018-01-21T00:40:51.095Z,4.64
2018-01-21T00:41:51.007Z,4.58
2018-01-21T00:42:51.086Z,4.75
2018-01-21T00:43:51.088Z,4.70
2018-01-21T00:44:51.127Z,4.59
2018-01-21T00:45:51.122Z,4.72
2018-01-21T00:46:51.052Z,4.67
2018-01-21T00:47:50.999Z,4.75
2018-01-21T00:48:51.014Z,4.80
2018-01-21T00:49:51.026Z,4.80
2018-01-21T00:50:50.929Z,4.86
2018-01-21T00:51:50.926Z,4.79
2018-01-21T00:52:51.041Z,4.88
2018-01-21T00:53:50.968Z,4.80
2018-01-21T00:54:50.946Z,4.84
2018-01-21T00:55:50.980Z,4.76
2018-01-21T00:56:50.913Z,4.76
2018-01-21T00:57:50.923Z,4.72
2018-01-21T00:58:50.938Z,4.84
2018-01-21T00:59:50.916Z,4.89
2018-01-21T01:00:50.939Z,4.91
2018-01-21T01:01:50.871Z,4.86
2018-01-21T01:02:50.850Z,4.83
2018-01-21T01:03:50.827Z,4.72
2018-01-21T01:04:50.859Z,4.69
2018-01-21T01:05:50.909Z,4.62
2018-01-21T01:06:50.823Z,4.72
2018-01-21T01:07:50.881Z,4.79
2018-01-21T01:08:50.821Z,4.79
2018-01-21T01:09:50.866Z,4.91
2018-01-21T01:10:50.777Z,4.86
2018-01-21T01:11:50.844Z,4.75
2018-01-21T01:12:50.756Z,4.83
2018-01-21T01:13:50.837Z,4.67
2018-01-21T01:14:50.791Z,4.86
2018-01-21T01:15:50.777Z,4.89
2018-01-21T01:16:50.699Z,4.79
2018-01-21T01:17:50.750Z,4.88
2018-01-21T01:18:50.743Z,4.84
2018-01-21T01:19:50.753Z,4.65
2018-01-21T01:20:50.732Z,4.73
2018-01-21T01:21:50.722Z,4.67
2018-01-21T01:22:50.651Z,4.69
2018-01-21T01:23:50.641Z,4.70
2018-01-21T01:24:50.700Z,4.72
2018-01-21T01:25:50.785Z,4.77
2018-01-21T01:26:50.698Z,4.84
2018-01-21T01:27:50.689Z,4.83
2018-01-21T01:28:50.688Z,4.79
2018-01-21T01:29:50.626Z,4.72
2018-01-21T01:30:50.656Z,4.79
2018-01-21T01:31:50.596Z,4.83
2018-01-21T01:32:50.640Z,4.67
2018-01-21T01:33:50.572Z,4.67
2018-01-21T01:34:59.923Z,4.67
2018-01-21T01:36:44.383Z,4.70
2018-01-21T01:37:44.214Z,4.75
2018-01-21T01:38:44.400Z,4.73
2018-01-21T01:39:43.929Z,4.77
2018-01-21T01:40:44.067Z,4.73
2018-01-21T01:41:43.977Z,4.77
2018-01-21T01:42:43.946Z,4.72
2018-01-21T01:43:43.982Z,4.76
2018-01-21T01:44:43.939Z,4.79
2018-01-21T01:45:43.971Z,4.86
2018-01-21T01:46:43.943Z,4.67
2018-01-21T01:47:43.939Z,4.69
2018-01-21T01:48:43.895Z,4.70
2018-01-21T01:49:43.852Z,4.79
2018-01-21T01:50:43.914Z,4.73
2018-01-21T01:51:43.878Z,4.83
2018-01-21T01:52:43.879Z,4.75
2018-01-21T01:53:43.938Z,4.84
2018-01-21T01:54:43.875Z,4.75
2018-01-21T01:55:43.889Z,4.75
2018-01-21T01:56:43.828Z,4.76
2018-01-21T01:57:43.822Z,4.79
2018-01-21T01:58:43.790Z,4.73
2018-01-21T01:59:43.796Z,4.86
2018-01-21T02:00:43.839Z,4.84
2018-01-21T02:01:43.829Z,4.86
2018-01-21T02:02:43.790Z,4.89
2018-01-21T02:03:43.834Z,4.84
2018-01-21T02:04:43.763Z,4.86
2018-01-21T02:05:43.757Z,4.88
2018-01-21T02:06:43.762Z,4.80
2018-01-21T02:07:43.760Z,4.79
2018-01-21T02:08:43.714Z,4.77
2018-01-21T02:09:43.733Z,4.76
2018-01-21T02:10:43.751Z,4.67
2018-01-21T02:11:43.738Z,4.72
2018-01-21T02:12:43.698Z,4.65
2018-01-21T02:13:43.699Z,4.67
2018-01-21T02:14:43.711Z,4.76
2018-01-21T02:15:43.710Z,4.76
2018-01-21T02:16:43.645Z,4.72
2018-01-21T02:17:43.630Z,4.65
2018-01-21T02:18:43.643Z,4.62
2018-01-21T02:19:43.664Z,4.67
2018-01-21T02:20:43.682Z,4.65
2018-01-21T02:21:43.652Z,4.72
2018-01-21T02:22:43.612Z,4.65
2018-01-21T02:23:43.616Z,4.62
2018-01-21T02:24:43.592Z,4.73
2018-01-21T02:25:43.598Z,4.69
2018-01-21T02:26:43.592Z,4.69
2018-01-21T02:27:43.577Z,4.70
2018-01-21T02:28:43.659Z,4.62
2018-01-21T02:29:43.594Z,4.65
2018-01-21T02:30:43.538Z,4.57
2018-01-21T02:31:43.645Z,4.61
2018-01-21T02:32:43.564Z,4.72
2018-01-21T02:33:43.512Z,4.69
2018-01-21T02:34:43.532Z,4.76
2018-01-21T02:35:43.581Z,4.72
2018-01-21T02:36:43.520Z,4.59
2018-01-21T02:37:43.537Z,4.58
2018-01-21T02:38:43.470Z,4.58
2018-01-21T02:39:43.532Z,4.55
2018-01-21T02:40:43.518Z,4.64
2018-01-21T02:41:43.479Z,4.54
2018-01-21T02:42:43.479Z,4.57
2018-01-21T02:43:43.634Z,4.55
2018-01-21T02:44:43.441Z,4.51
2018-01-21T02:45:43.488Z,4.61
2018-01-21T02:46:43.423Z,4.52
2018-01-21T02:47:52.412Z,4.61
2018-01-21T02:49:37.055Z,4.61
2018-01-21T02:50:36.893Z,4.59
2018-01-21T02:51:36.997Z,4.73
2018-01-21T02:52:36.880Z,4.73
2018-01-21T02:53:36.873Z,4.72
2018-01-21T02:54:36.827Z,4.77
2018-01-21T02:55:36.807Z,4.69
2018-01-21T02:56:36.818Z,4.55
2018-01-21T02:57:36.782Z,4.46
2018-01-21T02:58:36.808Z,4.58
2018-01-21T02:59:36.800Z,4.54
2018-01-21T03:00:46.138Z,4.61
2018-01-21T03:02:39.636Z,4.59
2018-01-21T03:03:38.885Z,4.61
2018-01-21T03:05:23.867Z,4.57
2018-01-21T03:06:23.626Z,4.59
2018-01-21T03:07:32.542Z,4.67
2018-01-21T03:09:26.450Z,4.51
2018-01-21T03:10:26.319Z,4.59
2018-01-21T03:12:10.662Z,4.55
2018-01-21T21:41:21.728Z,3.46
2018-01-21T21:42:25.392Z,3.44
2018-01-21T21:43:21.575Z,3.57
2018-01-21T21:44:20.862Z,3.71
2018-01-21T21:45:21.213Z,3.70
2018-01-21T21:46:21.482Z,3.82
2018-01-21T21:47:22.110Z,3.79
2018-01-21T21:48:21.083Z,3.76
2018-01-21T21:49:20.771Z,3.86
2018-01-21T21:50:21.585Z,3.89
2018-01-21T21:51:23.465Z,3.96
2018-01-21T21:52:22.368Z,4.03
2018-01-21T21:53:20.964Z,4.01
2018-01-21T21:55:43.659Z,4.07
2018-01-21T21:56:42.819Z,4.12
2018-01-21T21:57:43.726Z,4.07
2018-01-21T22:00:38.802Z,4.14
2018-01-21T22:01:39.072Z,3.88
2018-01-21T22:02:38.436Z,3.80
2018-01-21T22:03:39.089Z,4.06
2018-01-21T22:04:37.916Z,4.18
2018-01-21T22:05:37.752Z,4.15
2018-01-21T22:06:38.358Z,4.15
2018-01-21T22:07:38.588Z,4.19
2018-01-21T22:08:37.657Z,4.04
2018-01-21T22:09:37.657Z,4.06
2018-01-21T22:10:37.659Z,3.96
2018-01-21T22:11:37.881Z,3.89
2018-01-21T22:12:38.438Z,3.94
2018-01-21T22:13:37.520Z,3.98
2018-01-21T22:14:38.969Z,4.16
2018-01-21T22:15:37.618Z,4.18
2018-01-21T22:16:38.460Z,4.12
2018-01-21T22:17:37.571Z,4.07
2018-01-21T22:18:37.592Z,4.16
2018-01-21T22:19:37.693Z,4.12
2018-01-21T22:20:37.689Z,4.19
2018-01-21T22:21:37.437Z,4.19
2018-01-21T22:22:37.611Z,4.32
2018-01-21T22:23:37.820Z,4.34
2018-01-21T22:24:37.471Z,4.37
2018-01-21T22:25:37.389Z,4.42
2018-01-21T22:26:37.501Z,4.44
2018-01-21T22:27:37.604Z,4.37
2018-01-21T22:28:37.321Z,4.37
2018-01-21T22:29:37.399Z,4.28
2018-01-21T22:30:38.452Z,4.14
2018-01-21T22:31:38.506Z,4.01
2018-01-21T22:32:38.200Z,4.18
2018-01-21T22:33:37.469Z,4.07
2018-01-21T22:34:37.704Z,3.92
2018-01-21T22:35:37.617Z,3.89
2018-01-21T22:36:37.909Z,3.89
2018-01-21T22:37:37.511Z,3.89
2018-01-21T22:38:37.740Z,3.96
2018-01-21T22:39:39.880Z,3.98
2018-01-21T22:40:40.098Z,3.97
2018-01-21T22:41:38.217Z,4.18
2018-01-21T22:42:38.221Z,4.19
2018-01-21T22:43:37.488Z,4.18
2018-01-21T22:44:37.391Z,4.07
2018-01-21T22:45:37.315Z,4.00
2018-01-21T22:46:38.647Z,3.90
2018-01-21T22:47:37.615Z,3.90
2018-01-21T22:48:37.598Z,4.16
2018-01-21T22:49:39.086Z,3.97
2018-01-21T22:50:37.703Z,3.89
2018-01-21T22:51:37.363Z,3.89
2018-01-21T22:52:37.216Z,3.89
2018-01-21T22:53:37.159Z,3.88
2018-01-21T22:54:37.532Z,3.79
2018-01-21T22:55:39.356Z,3.76
2018-01-21T22:56:38.748Z,3.78
2018-01-21T22:57:38.303Z,3.79
2018-01-21T22:58:38.740Z,3.70
2018-01-21T22:59:38.857Z,3.70
2018-01-21T23:00:38.120Z,3.79
2018-01-21T23:01:37.179Z,3.72
2018-01-21T23:03:43.320Z,3.71
2018-01-21T23:04:38.213Z,3.92
2018-01-21T23:05:37.090Z,3.90
2018-01-21T23:06:37.379Z,3.86
2018-01-21T23:07:37.923Z,4.03
2018-01-21T23:08:37.306Z,4.15
2018-01-21T23:09:37.258Z,4.07
2018-01-21T23:10:38.819Z,4.10
2018-01-21T23:11:38.368Z,4.08
2018-01-21T23:12:37.012Z,3.98
2018-01-21T23:13:36.972Z,4.04
2018-01-21T23:14:37.135Z,4.14
2018-01-21T23:15:37.228Z,4.12
2018-01-21T23:16:36.966Z,4.15
2018-01-21T23:17:37.182Z,4.15
2018-01-21T23:18:37.236Z,4.18
2018-01-21T23:19:37.171Z,4.14
2018-01-21T23:20:36.989Z,4.19
2018-01-21T23:21:37.091Z,4.14
2018-01-21T23:22:37.044Z,4.18
2018-01-21T23:23:36.923Z,4.12
2018-01-21T23:24:36.902Z,4.04
2018-01-21T23:25:36.973Z,4.12
2018-01-21T23:26:45.950Z,4.00
2018-01-21T23:28:30.628Z,4.00
2018-01-21T23:29:30.488Z,3.98
2018-01-21T23:30:30.348Z,3.86
2018-01-21T23:31:30.239Z,3.94
2018-01-21T23:32:30.277Z,4.00
2018-01-21T23:33:30.534Z,3.86
2018-01-21T23:34:30.481Z,3.85
2018-01-21T23:35:30.270Z,3.88
2018-01-21T23:36:30.375Z,3.83
2018-01-21T23:37:30.327Z,3.88
2018-01-21T23:38:30.201Z,3.94
2018-01-21T23:39:30.156Z,3.78
2018-01-21T23:40:30.357Z,3.67
2018-01-21T23:41:30.324Z,3.70
2018-01-21T23:42:30.365Z,3.60
2018-01-21T23:43:30.446Z,3.42
2018-01-21T23:44:30.188Z,3.40
2018-01-21T23:45:30.163Z,3.31
2018-01-21T23:46:30.157Z,3.49
2018-01-21T23:47:30.126Z,3.61
2018-01-21T23:48:30.115Z,3.52
2018-01-21T23:49:30.108Z,3.65
2018-01-21T23:50:30.098Z,3.58
2018-01-21T23:51:30.076Z,3.58
2018-01-21T23:52:30.086Z,3.42
2018-01-21T23:53:30.046Z,3.36
2018-01-21T23:54:30.065Z,3.57
2018-01-21T23:55:30.077Z,3.43
2018-01-21T23:56:30.070Z,3.23
2018-01-21T23:57:30.049Z,3.16
2018-01-21T23:58:30.035Z,3.07
2018-01-21T23:59:30.038Z,3.20
